createdAt,value
2022-12-23T00:03:04.250Z,5.73
2022-12-23T00:08:05.500Z,6.34
2022-12-23T00:13:06.659Z,6.52
2022-12-23T00:18:07.846Z,6.52
2022-12-23T00:23:09.074Z,6.52
2022-12-23T00:28:10.293Z,6.52
2022-12-23T00:33:11.474Z,6.34
2022-12-23T00:38:13.657Z,6.34
2022-12-23T00:43:12.916Z,6.52
2022-12-23T00:48:14.221Z,6.34
2022-12-23T00:53:15.374Z,6.52
2022-12-23T00:58:16.544Z,6.71
2022-12-23T01:03:17.824Z,6.89
2022-12-23T01:08:19.482Z,7.07
2022-12-23T01:13:18.632Z,7.24
2022-12-23T01:18:20.163Z,7.42
2022-12-23T01:23:19.357Z,7.59
2022-12-23T01:28:21.797Z,7.42
2022-12-23T01:33:20.974Z,7.24
2022-12-23T01:38:22.183Z,7.24
2022-12-23T01:43:23.469Z,7.24
2022-12-23T01:48:24.684Z,7.42
2022-12-23T01:53:25.956Z,7.24
2022-12-23T01:58:27.146Z,7.24
2022-12-23T02:03:29.640Z,7.24
2022-12-23T02:08:28.973Z,7.42
2022-12-23T02:13:30.109Z,7.59
2022-12-23T02:18:31.280Z,8.10
2022-12-23T02:23:32.516Z,6.95
2022-12-23T02:28:34.635Z,7.93
2022-12-23T02:33:33.809Z,7.12
2022-12-23T02:38:35.035Z,7.28
2022-12-23T02:43:36.169Z,7.28
2022-12-23T02:48:37.386Z,7.12
2022-12-23T02:53:38.533Z,7.12
2022-12-23T02:58:39.706Z,7.12
2022-12-23T03:03:40.024Z,7.28
2022-12-23T03:08:41.283Z,7.28
2022-12-23T03:13:42.481Z,7.45
2022-12-23T03:18:43.685Z,7.28
2022-12-23T03:23:46.322Z,7.28
2022-12-23T03:28:45.232Z,7.28
2022-12-23T03:33:46.426Z,7.28
2022-12-23T03:38:45.644Z,7.12
2022-12-23T03:43:51.203Z,7.12
2022-12-23T03:48:48.614Z,6.95
2022-12-23T03:53:49.863Z,7.12
2022-12-23T03:58:51.110Z,7.28
2022-12-23T04:03:52.361Z,7.28
2022-12-23T04:08:53.565Z,7.28
2022-12-23T04:13:54.741Z,7.45
2022-12-23T04:18:55.916Z,7.45
2022-12-23T04:23:57.121Z,7.61
2022-12-23T04:28:58.370Z,7.61
2022-12-23T04:33:59.545Z,7.61
2022-12-23T04:39:00.769Z,7.77
2022-12-23T04:44:01.935Z,7.93
2022-12-23T04:49:03.150Z,8.09
2022-12-23T04:54:05.923Z,8.09
2022-12-23T04:59:05.172Z,8.09
2022-12-23T05:04:06.353Z,8.24
2022-12-23T05:09:07.598Z,8.09
2022-12-23T05:14:08.724Z,8.09
2022-12-23T05:19:09.908Z,8.09
2022-12-23T05:24:11.115Z,8.09
2022-12-23T05:29:12.294Z,8.24
2022-12-23T05:34:13.526Z,8.40
2022-12-23T05:39:14.743Z,8.40
2022-12-23T05:44:15.953Z,7.55
2022-12-23T05:49:17.229Z,7.55
2022-12-23T05:54:18.413Z,8.55
2022-12-23T05:59:19.609Z,8.24
2022-12-23T06:04:20.820Z,8.40
2022-12-23T06:09:22.054Z,8.24
2022-12-23T06:14:28.565Z,8.24
2022-12-23T06:19:23.331Z,8.24
2022-12-23T06:24:24.537Z,8.55
2022-12-23T06:29:25.826Z,8.55
2022-12-23T06:34:30.941Z,7.70
2022-12-23T06:39:29.058Z,8.55
2022-12-23T06:44:28.265Z,8.55
2022-12-23T06:49:29.412Z,8.24
2022-12-23T06:54:30.609Z,8.24
2022-12-23T06:59:31.920Z,8.09
2022-12-23T07:04:32.058Z,8.09
2022-12-23T07:09:33.242Z,8.40
2022-12-23T07:14:35.346Z,8.24
2022-12-23T07:19:34.539Z,8.24
2022-12-23T07:24:35.726Z,8.40
2022-12-23T07:29:36.885Z,8.40
2022-12-23T07:34:39.039Z,8.24
2022-12-23T07:39:38.231Z,8.40
2022-12-23T07:44:42.335Z,8.40
2022-12-23T07:49:39.417Z,8.40
2022-12-23T07:54:40.608Z,8.24
2022-12-23T07:59:41.803Z,8.24
2022-12-23T08:04:46.350Z,8.24
2022-12-23T08:09:44.792Z,8.24
2022-12-23T08:14:47.035Z,8.40
2022-12-23T08:19:44.826Z,8.40
2022-12-23T08:24:46.037Z,8.40
2022-12-23T08:29:49.168Z,8.24
2022-12-23T08:34:48.366Z,8.24
2022-12-23T08:39:49.567Z,8.24
2022-12-23T08:44:50.727Z,8.40
2022-12-23T08:49:51.891Z,8.09
2022-12-23T08:54:53.005Z,8.24
2022-12-23T08:59:54.167Z,8.24
2022-12-23T09:04:55.327Z,8.24
2022-12-23T09:09:56.469Z,8.40
2022-12-23T09:14:57.634Z,8.55
2022-12-23T09:19:58.782Z,8.70
2022-12-23T09:25:05.023Z,8.70
2022-12-23T09:30:00.331Z,8.55
2022-12-23T09:35:01.472Z,8.55
2022-12-23T09:40:03.623Z,8.40
2022-12-23T09:45:02.771Z,8.24
2022-12-23T09:50:05.056Z,8.40
2022-12-23T09:55:04.154Z,8.24
2022-12-23T10:00:06.282Z,8.40
2022-12-23T10:05:05.400Z,8.24
2022-12-23T10:10:06.520Z,8.24
2022-12-23T10:15:08.660Z,8.24
2022-12-23T10:20:07.792Z,8.24
2022-12-23T10:25:08.907Z,9.24
2022-12-23T10:30:34.155Z,9.08
2022-12-23T10:35:10.962Z,8.92
2022-12-23T10:40:12.074Z,8.92
2022-12-23T10:45:14.215Z,9.08
2022-12-23T10:50:12.367Z,9.24
2022-12-23T10:55:13.463Z,9.24
2022-12-23T11:00:14.587Z,9.24
2022-12-23T11:05:15.776Z,9.24
2022-12-23T11:10:16.957Z,9.24
2022-12-23T11:15:20.135Z,9.24
2022-12-23T11:20:19.297Z,9.24
2022-12-23T11:25:20.485Z,9.24
2022-12-23T11:30:21.664Z,9.24
2022-12-23T11:35:22.868Z,9.24
2022-12-23T11:40:25.080Z,9.08
2022-12-23T11:45:24.290Z,9.24
2022-12-23T11:50:25.490Z,9.24
2022-12-23T11:55:26.662Z,9.39
2022-12-23T12:00:28.788Z,9.24
2022-12-23T12:05:28.941Z,9.24
2022-12-23T12:10:29.065Z,9.24
2022-12-23T12:15:29.197Z,9.24
2022-12-23T12:20:29.400Z,9.24
2022-12-23T12:25:29.596Z,9.39
2022-12-23T12:30:28.749Z,9.55
2022-12-23T12:35:31.855Z,9.55
2022-12-23T12:40:32.033Z,9.39
2022-12-23T12:45:32.172Z,9.55
2022-12-23T12:50:32.321Z,9.39
2022-12-23T12:55:31.442Z,9.39
2022-12-23T13:00:32.553Z,9.55
2022-12-23T13:05:33.663Z,9.39
2022-12-23T13:10:35.193Z,9.39
2022-12-23T13:15:35.371Z,9.39
2022-12-23T13:20:34.474Z,9.39
2022-12-23T13:25:35.637Z,9.39
2022-12-23T13:30:37.008Z,9.24
2022-12-23T13:35:38.199Z,9.39
2022-12-23T13:40:40.353Z,9.39
2022-12-23T13:45:40.534Z,9.55
2022-12-23T13:50:41.710Z,9.55
2022-12-23T13:55:42.828Z,9.55
2022-12-23T14:00:43.937Z,9.55
2022-12-23T14:05:46.085Z,9.55
2022-12-23T14:10:46.203Z,9.39
2022-12-23T14:15:45.356Z,9.39
2022-12-23T14:20:46.536Z,9.55
2022-12-23T14:25:47.681Z,9.39
2022-12-23T14:30:47.316Z,9.55
2022-12-23T14:35:47.488Z,9.55
2022-12-23T14:40:47.296Z,9.55
2022-12-23T14:45:48.422Z,9.55
2022-12-23T14:50:49.623Z,9.55
2022-12-23T14:55:50.776Z,9.55
2022-12-23T15:00:51.907Z,9.55
2022-12-23T15:05:53.051Z,9.70
2022-12-23T15:10:54.203Z,9.70
2022-12-23T15:16:01.025Z,9.55
2022-12-23T15:20:55.405Z,9.55
2022-12-23T15:25:56.493Z,9.39
2022-12-23T15:30:58.702Z,9.55
2022-12-23T15:35:58.948Z,9.55
2022-12-23T15:40:58.090Z,9.70
2022-12-23T15:45:59.206Z,9.55
2022-12-23T15:51:00.401Z,9.70
2022-12-23T15:56:01.518Z,9.85
2022-12-23T16:01:02.666Z,9.70
2022-12-23T16:06:03.785Z,9.70
2022-12-23T16:11:04.932Z,9.70
2022-12-23T16:16:06.066Z,9.85
2022-12-23T16:21:07.260Z,9.85
2022-12-23T16:26:08.387Z,9.70
2022-12-23T16:31:09.559Z,9.70
2022-12-23T16:36:10.772Z,10.39
2022-12-23T16:41:11.949Z,10.23
2022-12-23T16:46:13.104Z,10.07
2022-12-23T16:51:14.266Z,10.23
2022-12-23T16:56:15.455Z,10.23
2022-12-23T17:01:16.670Z,10.07
2022-12-23T17:06:17.912Z,9.91
2022-12-23T17:11:20.093Z,10.23
2022-12-23T17:16:20.330Z,10.23
2022-12-23T17:21:19.499Z,10.23
2022-12-23T17:26:20.642Z,10.39
2022-12-23T17:31:26.544Z,10.54
2022-12-23T17:36:21.864Z,10.70
2022-12-23T17:41:24.068Z,10.70
2022-12-23T17:46:24.262Z,10.70
2022-12-23T17:51:22.427Z,10.70
2022-12-23T17:56:23.545Z,10.70
2022-12-23T18:01:25.739Z,10.39
2022-12-23T18:06:24.957Z,10.39
2022-12-23T18:11:27.056Z,10.23
2022-12-23T18:16:26.173Z,10.23
2022-12-23T18:21:28.381Z,10.39
2022-12-23T18:26:28.481Z,10.39
2022-12-23T18:31:27.731Z,10.54
2022-12-23T18:36:28.996Z,10.54
2022-12-23T18:41:34.028Z,10.70
2022-12-23T18:46:32.200Z,10.70
2022-12-23T18:51:31.350Z,10.54
2022-12-23T18:56:33.483Z,10.23
2022-12-23T19:01:34.668Z,10.07
2022-12-23T19:06:34.862Z,10.07
2022-12-23T19:11:34.116Z,9.91
2022-12-23T19:16:35.340Z,10.74
2022-12-23T19:21:36.572Z,10.74
2022-12-23T19:26:37.742Z,9.75
2022-12-23T19:31:38.961Z,10.24
2022-12-23T19:36:40.211Z,10.58
2022-12-23T19:41:42.455Z,10.90
2022-12-23T19:46:41.745Z,10.58
2022-12-23T19:51:42.912Z,9.73
2022-12-23T19:56:45.131Z,10.18
2022-12-23T20:01:44.368Z,9.73
2022-12-23T20:06:45.499Z,10.24
2022-12-23T20:11:47.777Z,10.74
2022-12-23T20:16:46.983Z,10.24
2022-12-23T20:21:48.122Z,10.90
2022-12-23T20:26:49.369Z,9.42
2022-12-23T20:31:50.806Z,9.91
2022-12-23T20:36:52.120Z,9.75
2022-12-23T20:41:54.344Z,9.75
2022-12-23T20:46:53.620Z,9.75
2022-12-23T20:51:54.747Z,9.42
2022-12-23T20:56:56.039Z,9.09
2022-12-23T21:01:57.383Z,8.75
2022-12-23T21:06:58.621Z,8.57
2022-12-23T21:11:59.781Z,8.40
2022-12-23T21:17:01.978Z,9.20
2022-12-23T21:22:01.129Z,9.02
2022-12-23T21:27:02.259Z,8.84
2022-12-23T21:32:04.432Z,8.84
2022-12-23T21:37:03.771Z,8.84
2022-12-23T21:42:04.979Z,9.02
2022-12-23T21:47:07.197Z,9.02
2022-12-23T21:52:08.369Z,8.65
2022-12-23T21:57:07.548Z,8.65
2022-12-23T22:02:08.745Z,8.28
2022-12-23T22:07:10.908Z,9.06
2022-12-23T22:12:10.064Z,8.87
2022-12-23T22:17:11.199Z,8.47
2022-12-23T22:22:13.356Z,8.87
2022-12-23T22:27:13.554Z,9.06
2022-12-23T22:32:12.717Z,9.25
2022-12-23T22:37:13.867Z,9.25
2022-12-23T22:42:15.013Z,8.47
2022-12-23T22:47:16.199Z,9.44
2022-12-23T22:52:17.488Z,8.84
2022-12-23T22:57:17.690Z,8.65
2022-12-23T23:02:18.931Z,8.84
2022-12-23T23:07:20.138Z,8.84
2022-12-23T23:12:21.346Z,8.65
2022-12-23T23:17:22.479Z,9.20
2022-12-23T23:22:23.668Z,9.20
2022-12-23T23:27:24.820Z,9.38
2022-12-23T23:32:26.381Z,9.55
2022-12-23T23:37:25.649Z,9.73
2022-12-23T23:42:26.807Z,8.92
2022-12-23T23:47:27.959Z,9.09
2022-12-23T23:52:29.112Z,9.09
2022-12-23T23:57:30.283Z,8.92
